sensor_id;sensor_type;location;lat;lon;timestamp;temperature;humidity
3921;DHT22;1975;49.356;6.816;2023-06-01T00:00:30;19.70;93.90
3921;DHT22;1975;49.356;6.816;2023-06-01T00:02:56;19.70;93.90
3921;DHT22;1975;49.356;6.816;2023-06-01T00:05:21;19.70;93.90
3921;DHT22;1975;49.356;6.816;2023-06-01T00:07:47;19.70;93.90
3921;DHT22;1975;49.356;6.816;2023-06-01T00:10:12;19.70;94.00
3921;DHT22;1975;49.356;6.816;2023-06-01T00:12:38;19.70;94.00
3921;DHT22;1975;49.356;6.816;2023-06-01T00:15:03;19.60;94.00
3921;DHT22;1975;49.356;6.816;2023-06-01T00:17:29;19.60;93.90
3921;DHT22;1975;49.356;6.816;2023-06-01T00:19:56;19.60;94.00
3921;DHT22;1975;49.356;6.816;2023-06-01T00:22:21;19.60;94.00
3921;DHT22;1975;49.356;6.816;2023-06-01T00:24:49;19.60;94.00
3921;DHT22;1975;49.356;6.816;2023-06-01T00:27:14;19.60;94.10
3921;DHT22;1975;49.356;6.816;2023-06-01T00:29:40;19.50;94.00
3921;DHT22;1975;49.356;6.816;2023-06-01T00:32:06;19.50;94.00
3921;DHT22;1975;49.356;6.816;2023-06-01T00:34:31;19.50;94.40
3921;DHT22;1975;49.356;6.816;2023-06-01T00:36:57;19.50;94.10
3921;DHT22;1975;49.356;6.816;2023-06-01T00:39:22;19.50;94.10
3921;DHT22;1975;49.356;6.816;2023-06-01T00:41:47;19.40;94.00
3921;DHT22;1975;49.356;6.816;2023-06-01T00:44:13;19.40;94.00
3921;DHT22;1975;49.356;6.816;2023-06-01T00:46:39;19.40;94.10
3921;DHT22;1975;49.356;6.816;2023-06-01T00:49:04;19.40;94.10
3921;DHT22;1975;49.356;6.816;2023-06-01T00:51:31;19.40;94.10
3921;DHT22;1975;49.356;6.816;2023-06-01T00:53:58;19.40;94.20
3921;DHT22;1975;49.356;6.816;2023-06-01T00:56:24;19.30;94.10
3921;DHT22;1975;49.356;6.816;2023-06-01T00:58:50;19.30;94.10
3921;DHT22;1975;49.356;6.816;2023-06-01T01:01:16;19.30;94.10
3921;DHT22;1975;49.356;6.816;2023-06-01T01:03:47;19.30;94.10
3921;DHT22;1975;49.356;6.816;2023-06-01T01:09:17;19.30;94.10
3921;DHT22;1975;49.356;6.816;2023-06-01T01:11:48;19.30;94.20
3921;DHT22;1975;49.356;6.816;2023-06-01T01:14:20;19.30;94.20
3921;DHT22;1975;49.356;6.816;2023-06-01T01:22:22;19.20;94.30
3921;DHT22;1975;49.356;6.816;2023-06-01T01:25:01;19.20;94.40
3921;DHT22;1975;49.356;6.816;2023-06-01T01:27:44;19.20;94.30
3921;DHT22;1975;49.356;6.816;2023-06-01T01:30:11;19.20;94.40
3921;DHT22;1975;49.356;6.816;2023-06-01T01:32:38;19.10;94.50
3921;DHT22;1975;49.356;6.816;2023-06-01T01:35:04;19.10;94.40
3921;DHT22;1975;49.356;6.816;2023-06-01T01:37:32;19.10;94.40
3921;DHT22;1975;49.356;6.816;2023-06-01T01:39:57;19.00;94.40
3921;DHT22;1975;49.356;6.816;2023-06-01T01:42:23;19.00;94.40
3921;DHT22;1975;49.356;6.816;2023-06-01T01:44:49;19.00;94.50
3921;DHT22;1975;49.356;6.816;2023-06-01T01:47:18;19.00;94.50
3921;DHT22;1975;49.356;6.816;2023-06-01T01:49:46;19.00;94.60
3921;DHT22;1975;49.356;6.816;2023-06-01T01:52:26;19.00;94.40
3921;DHT22;1975;49.356;6.816;2023-06-01T01:54:56;19.00;94.60
3921;DHT22;1975;49.356;6.816;2023-06-01T01:57:22;19.00;94.50
3921;DHT22;1975;49.356;6.816;2023-06-01T01:59:48;18.90;94.50
3921;DHT22;1975;49.356;6.816;2023-06-01T02:02:14;18.90;94.60
3921;DHT22;1975;49.356;6.816;2023-06-01T02:04:40;18.90;94.60
3921;DHT22;1975;49.356;6.816;2023-06-01T02:07:05;18.90;94.90
3921;DHT22;1975;49.356;6.816;2023-06-01T02:09:31;18.80;94.50
3921;DHT22;1975;49.356;6.816;2023-06-01T02:11:56;18.80;94.70
3921;DHT22;1975;49.356;6.816;2023-06-01T02:14:22;18.80;94.70
3921;DHT22;1975;49.356;6.816;2023-06-01T02:16:47;18.80;94.70
3921;DHT22;1975;49.356;6.816;2023-06-01T02:19:13;18.80;94.70
3921;DHT22;1975;49.356;6.816;2023-06-01T02:21:41;18.70;94.70
3921;DHT22;1975;49.356;6.816;2023-06-01T02:24:07;18.70;94.60
3921;DHT22;1975;49.356;6.816;2023-06-01T02:26:34;18.70;94.70
3921;DHT22;1975;49.356;6.816;2023-06-01T02:29:00;18.70;94.80
3921;DHT22;1975;49.356;6.816;2023-06-01T02:31:28;18.70;94.80
3921;DHT22;1975;49.356;6.816;2023-06-01T02:33:53;18.70;94.70
3921;DHT22;1975;49.356;6.816;2023-06-01T02:36:19;18.60;94.70
3921;DHT22;1975;49.356;6.816;2023-06-01T02:38:44;18.60;94.80
3921;DHT22;1975;49.356;6.816;2023-06-01T02:41:11;18.60;94.80
3921;DHT22;1975;49.356;6.816;2023-06-01T02:43:36;18.60;94.80
3921;DHT22;1975;49.356;6.816;2023-06-01T02:46:02;18.60;94.80
3921;DHT22;1975;49.356;6.816;2023-06-01T02:48:28;18.50;94.80
3921;DHT22;1975;49.356;6.816;2023-06-01T02:50:54;18.50;94.80
3921;DHT22;1975;49.356;6.816;2023-06-01T02:53:20;18.50;94.90
3921;DHT22;1975;49.356;6.816;2023-06-01T02:55:46;18.50;94.80
3921;DHT22;1975;49.356;6.816;2023-06-01T02:58:11;18.50;94.80
3921;DHT22;1975;49.356;6.816;2023-06-01T03:00:43;18.50;94.90
3921;DHT22;1975;49.356;6.816;2023-06-01T03:03:08;18.40;94.80
3921;DHT22;1975;49.356;6.816;2023-06-01T03:05:34;18.40;94.80
3921;DHT22;1975;49.356;6.816;2023-06-01T03:08:01;18.40;94.90
3921;DHT22;1975;49.356;6.816;2023-06-01T03:10:26;18.40;94.90
3921;DHT22;1975;49.356;6.816;2023-06-01T03:12:52;18.40;94.90
3921;DHT22;1975;49.356;6.816;2023-06-01T03:15:17;18.40;94.90
3921;DHT22;1975;49.356;6.816;2023-06-01T03:17:43;18.30;94.80
3921;DHT22;1975;49.356;6.816;2023-06-01T03:20:08;18.30;94.80
3921;DHT22;1975;49.356;6.816;2023-06-01T03:22:45;18.30;94.90
3921;DHT22;1975;49.356;6.816;2023-06-01T03:25:11;18.30;94.90
3921;DHT22;1975;49.356;6.816;2023-06-01T03:27:40;18.30;94.90
3921;DHT22;1975;49.356;6.816;2023-06-01T03:30:06;18.30;94.90
3921;DHT22;1975;49.356;6.816;2023-06-01T03:32:41;18.20;94.90
3921;DHT22;1975;49.356;6.816;2023-06-01T03:35:07;18.30;95.00
3921;DHT22;1975;49.356;6.816;2023-06-01T03:37:34;18.20;95.00
3921;DHT22;1975;49.356;6.816;2023-06-01T03:40:00;18.20;94.90
3921;DHT22;1975;49.356;6.816;2023-06-01T03:42:25;18.20;95.00
3921;DHT22;1975;49.356;6.816;2023-06-01T03:44:51;18.20;95.00
3921;DHT22;1975;49.356;6.816;2023-06-01T03:47:17;18.20;95.00
3921;DHT22;1975;49.356;6.816;2023-06-01T03:49:42;18.20;95.00
3921;DHT22;1975;49.356;6.816;2023-06-01T03:52:08;18.20;95.10
3921;DHT22;1975;49.356;6.816;2023-06-01T03:54:33;18.10;95.00
3921;DHT22;1975;49.356;6.816;2023-06-01T03:57:00;18.10;95.00
3921;DHT22;1975;49.356;6.816;2023-06-01T03:59:25;18.10;95.00
3921;DHT22;1975;49.356;6.816;2023-06-01T04:01:51;18.10;95.00
3921;DHT22;1975;49.356;6.816;2023-06-01T04:04:17;18.00;95.10
3921;DHT22;1975;49.356;6.816;2023-06-01T04:06:43;18.00;95.00
3921;DHT22;1975;49.356;6.816;2023-06-01T04:09:10;18.00;95.10
3921;DHT22;1975;49.356;6.816;2023-06-01T04:11:36;18.10;95.10
3921;DHT22;1975;49.356;6.816;2023-06-01T04:14:01;18.00;95.10
3921;DHT22;1975;49.356;6.816;2023-06-01T04:16:27;18.00;95.20
3921;DHT22;1975;49.356;6.816;2023-06-01T04:18:52;18.00;95.20
3921;DHT22;1975;49.356;6.816;2023-06-01T04:21:22;18.10;95.30
3921;DHT22;1975;49.356;6.816;2023-06-01T04:23:47;18.10;95.30
3921;DHT22;1975;49.356;6.816;2023-06-01T04:26:14;18.00;95.20
3921;DHT22;1975;49.356;6.816;2023-06-01T04:28:40;18.00;95.30
3921;DHT22;1975;49.356;6.816;2023-06-01T04:31:11;18.10;95.30
3921;DHT22;1975;49.356;6.816;2023-06-01T04:33:46;18.10;95.40
3921;DHT22;1975;49.356;6.816;2023-06-01T04:36:17;18.10;95.40
3921;DHT22;1975;49.356;6.816;2023-06-01T04:38:47;18.10;95.40
3921;DHT22;1975;49.356;6.816;2023-06-01T04:41:16;18.10;95.40
3921;DHT22;1975;49.356;6.816;2023-06-01T04:43:42;18.10;95.40
3921;DHT22;1975;49.356;6.816;2023-06-01T04:46:08;18.20;95.50
3921;DHT22;1975;49.356;6.816;2023-06-01T04:48:33;18.10;95.50
3921;DHT22;1975;49.356;6.816;2023-06-01T04:50:59;18.10;95.50
3921;DHT22;1975;49.356;6.816;2023-06-01T04:53:24;18.20;95.60
3921;DHT22;1975;49.356;6.816;2023-06-01T04:55:50;18.20;95.60
3921;DHT22;1975;49.356;6.816;2023-06-01T04:58:15;18.20;95.60
3921;DHT22;1975;49.356;6.816;2023-06-01T05:00:41;18.20;95.60
3921;DHT22;1975;49.356;6.816;2023-06-01T05:03:06;18.20;95.60
3921;DHT22;1975;49.356;6.816;2023-06-01T05:05:32;18.20;95.60
3921;DHT22;1975;49.356;6.816;2023-06-01T05:07:58;18.20;95.70
3921;DHT22;1975;49.356;6.816;2023-06-01T05:10:23;18.30;95.70
3921;DHT22;1975;49.356;6.816;2023-06-01T05:12:48;18.30;95.70
3921;DHT22;1975;49.356;6.816;2023-06-01T05:15:14;18.30;95.80
3921;DHT22;1975;49.356;6.816;2023-06-01T05:17:41;18.30;95.70
3921;DHT22;1975;49.356;6.816;2023-06-01T05:20:07;18.40;95.80
3921;DHT22;1975;49.356;6.816;2023-06-01T05:22:34;18.40;95.70
3921;DHT22;1975;49.356;6.816;2023-06-01T05:25:00;18.40;95.70
3921;DHT22;1975;49.356;6.816;2023-06-01T05:27:26;18.40;95.70
3921;DHT22;1975;49.356;6.816;2023-06-01T05:29:51;18.50;95.80
3921;DHT22;1975;49.356;6.816;2023-06-01T05:32:17;18.50;95.80
3921;DHT22;1975;49.356;6.816;2023-06-01T05:34:42;18.50;95.80
3921;DHT22;1975;49.356;6.816;2023-06-01T05:37:08;18.50;95.80
3921;DHT22;1975;49.356;6.816;2023-06-01T05:39:33;18.50;95.90
3921;DHT22;1975;49.356;6.816;2023-06-01T05:41:59;18.60;95.90
3921;DHT22;1975;49.356;6.816;2023-06-01T05:44:24;18.60;95.90
3921;DHT22;1975;49.356;6.816;2023-06-01T05:46:50;18.60;96.00
3921;DHT22;1975;49.356;6.816;2023-06-01T05:49:16;18.60;96.10
3921;DHT22;1975;49.356;6.816;2023-06-01T05:51:42;18.60;96.10
3921;DHT22;1975;49.356;6.816;2023-06-01T05:54:08;18.60;96.10
3921;DHT22;1975;49.356;6.816;2023-06-01T05:56:34;18.60;96.20
3921;DHT22;1975;49.356;6.816;2023-06-01T05:58:59;18.60;96.30
3921;DHT22;1975;49.356;6.816;2023-06-01T06:01:25;18.60;96.40
3921;DHT22;1975;49.356;6.816;2023-06-01T06:03:52;18.60;96.50
3921;DHT22;1975;49.356;6.816;2023-06-01T06:06:18;18.60;96.60
3921;DHT22;1975;49.356;6.816;2023-06-01T06:08:43;18.70;96.70
3921;DHT22;1975;49.356;6.816;2023-06-01T06:11:09;18.70;96.80
3921;DHT22;1975;49.356;6.816;2023-06-01T06:13:34;18.70;97.30
3921;DHT22;1975;49.356;6.816;2023-06-01T06:15:59;18.70;97.00
3921;DHT22;1975;49.356;6.816;2023-06-01T06:18:25;18.70;97.20
3921;DHT22;1975;49.356;6.816;2023-06-01T06:20:50;18.70;97.30
3921;DHT22;1975;49.356;6.816;2023-06-01T06:23:16;18.80;97.70
3921;DHT22;1975;49.356;6.816;2023-06-01T06:25:41;18.80;97.90
3921;DHT22;1975;49.356;6.816;2023-06-01T06:28:08;18.80;98.00
3921;DHT22;1975;49.356;6.816;2023-06-01T06:30:33;18.90;98.30
3921;DHT22;1975;49.356;6.816;2023-06-01T06:32:59;18.90;98.20
3921;DHT22;1975;49.356;6.816;2023-06-01T06:35:24;19.00;98.30
3921;DHT22;1975;49.356;6.816;2023-06-01T06:37:49;19.00;98.30
3921;DHT22;1975;49.356;6.816;2023-06-01T06:40:15;19.00;98.30
3921;DHT22;1975;49.356;6.816;2023-06-01T06:42:43;19.10;98.40
3921;DHT22;1975;49.356;6.816;2023-06-01T06:45:08;19.10;98.40
3921;DHT22;1975;49.356;6.816;2023-06-01T06:47:34;19.20;98.40
3921;DHT22;1975;49.356;6.816;2023-06-01T06:49:59;19.20;98.30
3921;DHT22;1975;49.356;6.816;2023-06-01T06:52:26;19.20;98.30
3921;DHT22;1975;49.356;6.816;2023-06-01T06:54:51;19.30;98.40
3921;DHT22;1975;49.356;6.816;2023-06-01T06:57:17;19.30;98.30
3921;DHT22;1975;49.356;6.816;2023-06-01T06:59:42;19.30;98.30
3921;DHT22;1975;49.356;6.816;2023-06-01T07:02:08;19.40;98.30
3921;DHT22;1975;49.356;6.816;2023-06-01T07:04:33;19.40;98.10
3921;DHT22;1975;49.356;6.816;2023-06-01T07:06:59;19.50;98.10
3921;DHT22;1975;49.356;6.816;2023-06-01T07:09:26;19.60;98.10
3921;DHT22;1975;49.356;6.816;2023-06-01T07:11:51;19.60;98.10
3921;DHT22;1975;49.356;6.816;2023-06-01T07:14:17;19.70;98.10
3921;DHT22;1975;49.356;6.816;2023-06-01T07:16:42;19.70;98.10
3921;DHT22;1975;49.356;6.816;2023-06-01T07:19:08;19.70;98.30
3921;DHT22;1975;49.356;6.816;2023-06-01T07:21:33;19.80;98.30
3921;DHT22;1975;49.356;6.816;2023-06-01T07:24:01;19.80;98.60
3921;DHT22;1975;49.356;6.816;2023-06-01T07:26:29;19.90;98.50
3921;DHT22;1975;49.356;6.816;2023-06-01T07:28:55;19.90;98.60
3921;DHT22;1975;49.356;6.816;2023-06-01T07:31:22;19.90;98.60
3921;DHT22;1975;49.356;6.816;2023-06-01T07:33:48;20.00;98.50
3921;DHT22;1975;49.356;6.816;2023-06-01T07:36:13;20.00;98.80
3921;DHT22;1975;49.356;6.816;2023-06-01T07:38:39;20.10;98.60
3921;DHT22;1975;49.356;6.816;2023-06-01T07:41:05;20.10;98.50
3921;DHT22;1975;49.356;6.816;2023-06-01T07:43:31;20.10;98.60
3921;DHT22;1975;49.356;6.816;2023-06-01T07:45:57;20.20;98.90
3921;DHT22;1975;49.356;6.816;2023-06-01T07:48:22;20.20;98.80
3921;DHT22;1975;49.356;6.816;2023-06-01T07:50:48;20.30;98.80
3921;DHT22;1975;49.356;6.816;2023-06-01T07:53:16;20.30;98.80
3921;DHT22;1975;49.356;6.816;2023-06-01T07:55:41;20.40;98.80
3921;DHT22;1975;49.356;6.816;2023-06-01T07:58:09;20.40;98.50
3921;DHT22;1975;49.356;6.816;2023-06-01T08:00:34;20.40;98.50
3921;DHT22;1975;49.356;6.816;2023-06-01T08:03:01;20.50;99.00
3921;DHT22;1975;49.356;6.816;2023-06-01T08:05:33;20.80;96.40
3921;DHT22;1975;49.356;6.816;2023-06-01T08:07:59;20.90;96.80
3921;DHT22;1975;49.356;6.816;2023-06-01T08:10:24;21.10;97.20
3921;DHT22;1975;49.356;6.816;2023-06-01T08:12:50;21.20;97.40
3921;DHT22;1975;49.356;6.816;2023-06-01T08:15:18;21.30;96.80
3921;DHT22;1975;49.356;6.816;2023-06-01T08:17:45;21.20;96.00
3921;DHT22;1975;49.356;6.816;2023-06-01T08:20:10;21.20;96.10
3921;DHT22;1975;49.356;6.816;2023-06-01T08:22:37;21.10;96.80
3921;DHT22;1975;49.356;6.816;2023-06-01T08:25:03;21.20;97.40
3921;DHT22;1975;49.356;6.816;2023-06-01T08:27:29;21.20;97.50
3921;DHT22;1975;49.356;6.816;2023-06-01T08:29:54;21.30;97.40
3921;DHT22;1975;49.356;6.816;2023-06-01T08:32:20;21.40;96.90
3921;DHT22;1975;49.356;6.816;2023-06-01T08:34:45;21.40;97.60
3921;DHT22;1975;49.356;6.816;2023-06-01T08:37:12;21.50;97.40
3921;DHT22;1975;49.356;6.816;2023-06-01T08:39:38;21.60;97.70
3921;DHT22;1975;49.356;6.816;2023-06-01T08:42:15;21.60;97.60
3921;DHT22;1975;49.356;6.816;2023-06-01T08:44:45;21.80;97.10
3921;DHT22;1975;49.356;6.816;2023-06-01T08:47:11;21.80;96.90
3921;DHT22;1975;49.356;6.816;2023-06-01T08:49:37;21.90;96.10
3921;DHT22;1975;49.356;6.816;2023-06-01T08:52:11;21.90;96.80
3921;DHT22;1975;49.356;6.816;2023-06-01T08:54:36;21.90;96.90
3921;DHT22;1975;49.356;6.816;2023-06-01T08:57:05;21.90;96.90
3921;DHT22;1975;49.356;6.816;2023-06-01T08:59:32;22.00;96.80
3921;DHT22;1975;49.356;6.816;2023-06-01T09:01:57;22.10;96.10
3921;DHT22;1975;49.356;6.816;2023-06-01T09:04:23;22.10;96.60
3921;DHT22;1975;49.356;6.816;2023-06-01T09:06:48;22.00;96.20
3921;DHT22;1975;49.356;6.816;2023-06-01T09:09:14;22.20;95.80
3921;DHT22;1975;49.356;6.816;2023-06-01T09:11:40;22.20;95.50
3921;DHT22;1975;49.356;6.816;2023-06-01T09:14:18;22.20;95.80
3921;DHT22;1975;49.356;6.816;2023-06-01T09:16:45;22.20;95.00
3921;DHT22;1975;49.356;6.816;2023-06-01T09:19:11;22.20;95.70
3921;DHT22;1975;49.356;6.816;2023-06-01T09:21:36;22.20;95.70
3921;DHT22;1975;49.356;6.816;2023-06-01T09:24:18;22.20;95.40
3921;DHT22;1975;49.356;6.816;2023-06-01T09:26:47;22.20;95.60
3921;DHT22;1975;49.356;6.816;2023-06-01T09:29:12;22.30;95.30
3921;DHT22;1975;49.356;6.816;2023-06-01T09:31:39;22.40;94.60
3921;DHT22;1975;49.356;6.816;2023-06-01T09:34:08;22.30;94.10
3921;DHT22;1975;49.356;6.816;2023-06-01T09:36:33;22.30;94.70
3921;DHT22;1975;49.356;6.816;2023-06-01T09:39:00;22.40;94.30
3921;DHT22;1975;49.356;6.816;2023-06-01T09:41:25;22.50;94.70
3921;DHT22;1975;49.356;6.816;2023-06-01T09:43:51;22.50;94.70
3921;DHT22;1975;49.356;6.816;2023-06-01T09:46:17;22.50;94.80
3921;DHT22;1975;49.356;6.816;2023-06-01T09:48:43;22.50;94.80
3921;DHT22;1975;49.356;6.816;2023-06-01T09:51:25;22.50;95.00
3921;DHT22;1975;49.356;6.816;2023-06-01T09:53:56;22.60;94.90
3921;DHT22;1975;49.356;6.816;2023-06-01T09:56:22;22.60;94.40
3921;DHT22;1975;49.356;6.816;2023-06-01T09:58:47;22.50;94.40
3921;DHT22;1975;49.356;6.816;2023-06-01T10:01:14;22.60;94.50
3921;DHT22;1975;49.356;6.816;2023-06-01T10:03:41;22.60;94.10
3921;DHT22;1975;49.356;6.816;2023-06-01T10:06:07;22.60;94.40
3921;DHT22;1975;49.356;6.816;2023-06-01T10:08:33;22.70;94.50
3921;DHT22;1975;49.356;6.816;2023-06-01T10:10:59;22.80;93.70
3921;DHT22;1975;49.356;6.816;2023-06-01T10:13:24;22.80;93.50
3921;DHT22;1975;49.356;6.816;2023-06-01T10:15:53;22.70;93.10
3921;DHT22;1975;49.356;6.816;2023-06-01T10:18:18;22.70;92.30
3921;DHT22;1975;49.356;6.816;2023-06-01T10:20:44;22.60;92.50
3921;DHT22;1975;49.356;6.816;2023-06-01T10:23:10;22.60;93.10
3921;DHT22;1975;49.356;6.816;2023-06-01T10:25:38;22.70;93.00
3921;DHT22;1975;49.356;6.816;2023-06-01T10:28:05;22.70;92.40
3921;DHT22;1975;49.356;6.816;2023-06-01T10:30:33;22.70;92.90
3921;DHT22;1975;49.356;6.816;2023-06-01T10:32:58;22.80;93.00
3921;DHT22;1975;49.356;6.816;2023-06-01T10:40:42;22.80;91.90
3921;DHT22;1975;49.356;6.816;2023-06-01T10:43:38;23.00;93.40
3921;DHT22;1975;49.356;6.816;2023-06-01T10:45:53;22.90;92.50
3921;DHT22;1975;49.356;6.816;2023-06-01T10:48:20;22.90;91.90
3921;DHT22;1975;49.356;6.816;2023-06-01T10:51:18;22.90;91.80
3921;DHT22;1975;49.356;6.816;2023-06-01T10:53:44;23.00;92.70
3921;DHT22;1975;49.356;6.816;2023-06-01T10:56:19;23.00;93.10
3921;DHT22;1975;49.356;6.816;2023-06-01T11:01:35;22.70;93.80
3921;DHT22;1975;49.356;6.816;2023-06-01T11:04:01;22.50;93.90
3921;DHT22;1975;49.356;6.816;2023-06-01T11:06:33;22.50;93.90
3921;DHT22;1975;49.356;6.816;2023-06-01T11:09:01;22.50;94.10
3921;DHT22;1975;49.356;6.816;2023-06-01T11:14:11;22.50;93.80
3921;DHT22;1975;49.356;6.816;2023-06-01T11:16:37;22.40;93.90
3921;DHT22;1975;49.356;6.816;2023-06-01T11:19:03;22.50;94.20
3921;DHT22;1975;49.356;6.816;2023-06-01T11:21:33;22.40;94.20
3921;DHT22;1975;49.356;6.816;2023-06-01T11:24:01;22.40;94.60
3921;DHT22;1975;49.356;6.816;2023-06-01T11:26:30;22.30;94.80
3921;DHT22;1975;49.356;6.816;2023-06-01T11:29:03;22.30;95.10
3921;DHT22;1975;49.356;6.816;2023-06-01T11:31:33;22.30;95.20
3921;DHT22;1975;49.356;6.816;2023-06-01T11:33:59;22.30;95.10
3921;DHT22;1975;49.356;6.816;2023-06-01T11:36:25;22.30;95.10
3921;DHT22;1975;49.356;6.816;2023-06-01T11:38:52;22.40;95.00
3921;DHT22;1975;49.356;6.816;2023-06-01T11:41:19;22.50;95.00
3921;DHT22;1975;49.356;6.816;2023-06-01T11:43:44;22.50;95.10
3921;DHT22;1975;49.356;6.816;2023-06-01T11:46:10;22.50;94.90
3921;DHT22;1975;49.356;6.816;2023-06-01T11:48:35;22.50;94.50
3921;DHT22;1975;49.356;6.816;2023-06-01T11:51:01;22.50;94.60
3921;DHT22;1975;49.356;6.816;2023-06-01T11:53:28;22.40;94.80
3921;DHT22;1975;49.356;6.816;2023-06-01T11:55:54;22.40;94.90
3921;DHT22;1975;49.356;6.816;2023-06-01T11:58:24;22.40;95.10
3921;DHT22;1975;49.356;6.816;2023-06-01T12:00:49;22.40;95.10
3921;DHT22;1975;49.356;6.816;2023-06-01T12:03:15;22.50;94.80
3921;DHT22;1975;49.356;6.816;2023-06-01T12:05:42;22.50;94.90
3921;DHT22;1975;49.356;6.816;2023-06-01T12:08:14;22.60;95.10
3921;DHT22;1975;49.356;6.816;2023-06-01T12:10:41;22.60;94.60
3921;DHT22;1975;49.356;6.816;2023-06-01T12:13:07;22.60;95.00
3921;DHT22;1975;49.356;6.816;2023-06-01T12:15:33;22.50;95.00
3921;DHT22;1975;49.356;6.816;2023-06-01T12:17:58;22.50;95.40
3921;DHT22;1975;49.356;6.816;2023-06-01T12:20:27;22.50;95.70
3921;DHT22;1975;49.356;6.816;2023-06-01T12:22:53;22.50;95.50
3921;DHT22;1975;49.356;6.816;2023-06-01T12:25:21;22.50;95.60
3921;DHT22;1975;49.356;6.816;2023-06-01T12:30:43;22.60;95.40
3921;DHT22;1975;49.356;6.816;2023-06-01T12:33:08;22.60;95.40
3921;DHT22;1975;49.356;6.816;2023-06-01T12:35:50;22.70;95.30
3921;DHT22;1975;49.356;6.816;2023-06-01T12:38:15;22.70;95.10
3921;DHT22;1975;49.356;6.816;2023-06-01T12:40:41;22.80;95.00
3921;DHT22;1975;49.356;6.816;2023-06-01T12:43:16;22.70;94.70
3921;DHT22;1975;49.356;6.816;2023-06-01T12:45:42;22.70;94.70
3921;DHT22;1975;49.356;6.816;2023-06-01T12:48:08;22.60;95.20
3921;DHT22;1975;49.356;6.816;2023-06-01T12:50:42;22.70;95.40
3921;DHT22;1975;49.356;6.816;2023-06-01T12:53:07;22.70;95.20
3921;DHT22;1975;49.356;6.816;2023-06-01T12:55:33;22.70;95.30
3921;DHT22;1975;49.356;6.816;2023-06-01T12:57:58;22.70;95.00
3921;DHT22;1975;49.356;6.816;2023-06-01T13:00:23;22.80;95.00
3921;DHT22;1975;49.356;6.816;2023-06-01T13:02:49;22.80;95.20
3921;DHT22;1975;49.356;6.816;2023-06-01T13:05:16;22.80;94.80
3921;DHT22;1975;49.356;6.816;2023-06-01T13:07:42;22.80;94.80
3921;DHT22;1975;49.356;6.816;2023-06-01T13:10:08;22.70;95.10
3921;DHT22;1975;49.356;6.816;2023-06-01T13:12:34;22.70;95.20
3921;DHT22;1975;49.356;6.816;2023-06-01T13:14:59;22.80;95.40
3921;DHT22;1975;49.356;6.816;2023-06-01T13:17:26;22.80;95.30
3921;DHT22;1975;49.356;6.816;2023-06-01T13:19:52;22.80;95.10
3921;DHT22;1975;49.356;6.816;2023-06-01T13:22:18;22.80;95.20
3921;DHT22;1975;49.356;6.816;2023-06-01T13:24:43;22.80;95.30
3921;DHT22;1975;49.356;6.816;2023-06-01T13:27:08;22.80;95.60
3921;DHT22;1975;49.356;6.816;2023-06-01T13:29:34;22.90;95.30
3921;DHT22;1975;49.356;6.816;2023-06-01T13:31:59;23.00;95.00
3921;DHT22;1975;49.356;6.816;2023-06-01T13:34:25;23.10;94.30
3921;DHT22;1975;49.356;6.816;2023-06-01T13:36:50;23.10;94.40
3921;DHT22;1975;49.356;6.816;2023-06-01T13:39:16;23.00;94.50
3921;DHT22;1975;49.356;6.816;2023-06-01T13:41:42;23.00;94.60
3921;DHT22;1975;49.356;6.816;2023-06-01T13:44:07;23.00;94.40
3921;DHT22;1975;49.356;6.816;2023-06-01T13:46:33;23.00;94.20
3921;DHT22;1975;49.356;6.816;2023-06-01T13:48:58;23.10;94.00
3921;DHT22;1975;49.356;6.816;2023-06-01T13:51:24;23.20;93.60
3921;DHT22;1975;49.356;6.816;2023-06-01T13:53:49;23.10;93.90
3921;DHT22;1975;49.356;6.816;2023-06-01T13:56:14;23.10;94.00
3921;DHT22;1975;49.356;6.816;2023-06-01T13:58:40;23.10;94.20
3921;DHT22;1975;49.356;6.816;2023-06-01T14:01:05;23.20;94.30
3921;DHT22;1975;49.356;6.816;2023-06-01T14:03:31;23.20;94.30
3921;DHT22;1975;49.356;6.816;2023-06-01T14:05:56;23.20;94.60
3921;DHT22;1975;49.356;6.816;2023-06-01T14:08:22;23.20;94.50
3921;DHT22;1975;49.356;6.816;2023-06-01T14:10:47;23.30;94.20
3921;DHT22;1975;49.356;6.816;2023-06-01T14:13:13;23.30;94.00
3921;DHT22;1975;49.356;6.816;2023-06-01T14:15:38;23.30;93.90
3921;DHT22;1975;49.356;6.816;2023-06-01T14:18:04;23.30;94.10
3921;DHT22;1975;49.356;6.816;2023-06-01T14:20:30;23.30;94.80
3921;DHT22;1975;49.356;6.816;2023-06-01T14:22:55;23.30;94.60
3921;DHT22;1975;49.356;6.816;2023-06-01T14:25:21;23.30;94.60
3921;DHT22;1975;49.356;6.816;2023-06-01T14:27:46;23.30;94.80
3921;DHT22;1975;49.356;6.816;2023-06-01T14:30:12;23.30;95.00
3921;DHT22;1975;49.356;6.816;2023-06-01T14:32:38;23.30;95.30
3921;DHT22;1975;49.356;6.816;2023-06-01T14:35:04;23.40;94.40
3921;DHT22;1975;49.356;6.816;2023-06-01T14:37:29;23.60;93.60
3921;DHT22;1975;49.356;6.816;2023-06-01T14:39:56;23.60;93.90
3921;DHT22;1975;49.356;6.816;2023-06-01T14:42:22;23.50;94.30
3921;DHT22;1975;49.356;6.816;2023-06-01T14:44:47;23.50;94.70
3921;DHT22;1975;49.356;6.816;2023-06-01T14:47:12;23.50;95.00
3921;DHT22;1975;49.356;6.816;2023-06-01T14:49:39;23.50;94.90
3921;DHT22;1975;49.356;6.816;2023-06-01T14:52:05;23.50;95.00
3921;DHT22;1975;49.356;6.816;2023-06-01T14:54:31;23.50;95.50
3921;DHT22;1975;49.356;6.816;2023-06-01T14:56:56;23.60;94.60
3921;DHT22;1975;49.356;6.816;2023-06-01T14:59:21;23.70;94.10
3921;DHT22;1975;49.356;6.816;2023-06-01T15:01:47;23.70;94.30
3921;DHT22;1975;49.356;6.816;2023-06-01T15:04:12;23.70;94.60
3921;DHT22;1975;49.356;6.816;2023-06-01T15:06:38;23.60;95.00
3921;DHT22;1975;49.356;6.816;2023-06-01T15:09:03;23.70;94.90
3921;DHT22;1975;49.356;6.816;2023-06-01T15:11:29;23.80;94.80
3921;DHT22;1975;49.356;6.816;2023-06-01T15:13:55;23.80;94.50
3921;DHT22;1975;49.356;6.816;2023-06-01T15:16:20;23.80;94.60
3921;DHT22;1975;49.356;6.816;2023-06-01T15:18:46;23.80;94.60
3921;DHT22;1975;49.356;6.816;2023-06-01T15:21:11;23.90;94.60
3921;DHT22;1975;49.356;6.816;2023-06-01T15:23:37;23.90;94.90
3921;DHT22;1975;49.356;6.816;2023-06-01T15:26:02;23.90;94.80
3921;DHT22;1975;49.356;6.816;2023-06-01T15:28:29;23.90;94.80
3921;DHT22;1975;49.356;6.816;2023-06-01T15:30:55;24.00;94.80
3921;DHT22;1975;49.356;6.816;2023-06-01T15:33:20;24.10;94.90
3921;DHT22;1975;49.356;6.816;2023-06-01T15:35:45;24.00;94.90
3921;DHT22;1975;49.356;6.816;2023-06-01T15:38:11;24.00;94.80
3921;DHT22;1975;49.356;6.816;2023-06-01T15:40:37;24.00;95.10
3921;DHT22;1975;49.356;6.816;2023-06-01T15:43:03;24.10;95.00
3921;DHT22;1975;49.356;6.816;2023-06-01T15:45:28;24.10;94.60
3921;DHT22;1975;49.356;6.816;2023-06-01T15:47:54;24.10;94.70
3921;DHT22;1975;49.356;6.816;2023-06-01T15:50:19;24.10;94.70
3921;DHT22;1975;49.356;6.816;2023-06-01T15:52:45;24.10;94.60
3921;DHT22;1975;49.356;6.816;2023-06-01T15:55:10;24.10;94.00
3921;DHT22;1975;49.356;6.816;2023-06-01T15:57:36;24.10;94.10
3921;DHT22;1975;49.356;6.816;2023-06-01T16:00:02;24.10;94.00
3921;DHT22;1975;49.356;6.816;2023-06-01T16:02:27;24.10;94.20
3921;DHT22;1975;49.356;6.816;2023-06-01T16:04:53;24.10;94.10
3921;DHT22;1975;49.356;6.816;2023-06-01T16:07:18;24.20;93.70
3921;DHT22;1975;49.356;6.816;2023-06-01T16:09:44;24.20;93.30
3921;DHT22;1975;49.356;6.816;2023-06-01T16:12:09;24.20;93.30
3921;DHT22;1975;49.356;6.816;2023-06-01T16:14:35;24.20;93.50
3921;DHT22;1975;49.356;6.816;2023-06-01T16:17:00;24.10;93.50
3921;DHT22;1975;49.356;6.816;2023-06-01T16:19:26;24.20;93.10